createdAt,value
2022-10-08T00:01:24.237Z,10.75
2022-10-08T00:03:54.564Z,10.93
2022-10-08T00:06:31.914Z,10.90
2022-10-08T00:09:08.499Z,11.01
2022-10-08T00:11:39.666Z,10.94
2022-10-08T00:14:08.239Z,10.77
2022-10-08T00:16:40.396Z,10.82
2022-10-08T00:19:10.879Z,10.59
2022-10-08T00:21:41.963Z,10.46
2022-10-08T00:24:17.402Z,10.46
2022-10-08T00:26:46.197Z,10.31
2022-10-08T00:29:17.453Z,10.48
2022-10-08T00:31:48.044Z,9.99
2022-10-08T00:34:19.927Z,9.86
2022-10-08T00:36:53.409Z,9.65
2022-10-08T00:39:23.964Z,9.67
2022-10-08T00:41:55.087Z,9.64
2022-10-08T00:44:53.745Z,9.78
2022-10-08T00:47:32.697Z,9.79
2022-10-08T00:50:47.126Z,9.77
2022-10-08T00:53:14.336Z,9.73
2022-10-08T00:55:43.771Z,9.56
2022-10-08T00:58:23.074Z,9.77
2022-10-08T01:00:50.386Z,9.51
2022-10-08T01:03:17.937Z,9.72
2022-10-08T01:06:01.264Z,9.65
2022-10-08T01:08:58.496Z,9.46
2022-10-08T01:11:31.369Z,9.58
2022-10-08T01:14:07.513Z,9.64
2022-10-08T01:17:05.212Z,9.52
2022-10-08T01:19:57.217Z,9.57
2022-10-08T01:22:57.613Z,9.52
2022-10-08T01:25:38.302Z,9.30
2022-10-08T01:28:40.966Z,9.24
2022-10-08T01:31:31.373Z,9.04
2022-10-08T01:34:00.389Z,8.86
2022-10-08T01:36:33.243Z,9.01
2022-10-08T01:39:08.402Z,8.99
2022-10-08T01:41:35.905Z,8.98
2022-10-08T01:44:13.659Z,8.52
2022-10-08T01:46:46.647Z,8.68
2022-10-08T01:49:22.176Z,8.82
2022-10-08T01:51:58.301Z,9.00
2022-10-08T01:54:28.896Z,9.01
2022-10-08T01:56:59.414Z,8.85
2022-10-08T01:59:52.179Z,8.76
2022-10-08T02:02:25.430Z,8.63
2022-10-08T02:04:55.658Z,8.66
2022-10-08T02:07:30.993Z,8.65
2022-10-08T02:10:11.437Z,8.62
2022-10-08T02:12:40.314Z,8.45
2022-10-08T02:15:15.637Z,8.54
2022-10-08T02:18:21.087Z,8.69
2022-10-08T02:21:19.001Z,8.68
2022-10-08T02:24:33.831Z,8.61
2022-10-08T02:27:04.672Z,8.45
2022-10-08T02:29:37.925Z,7.96
2022-10-08T02:32:11.436Z,8.07
2022-10-08T02:34:56.467Z,7.96
2022-10-08T02:37:28.251Z,8.08
2022-10-08T02:40:10.905Z,8.08
2022-10-08T02:42:44.984Z,8.27
2022-10-08T02:45:38.014Z,8.41
2022-10-08T02:48:15.169Z,8.42
2022-10-08T02:50:45.696Z,8.45
2022-10-08T02:53:18.368Z,8.43
2022-10-08T02:56:08.526Z,8.46
2022-10-08T02:58:38.924Z,8.45
2022-10-08T03:01:30.993Z,8.51
2022-10-08T03:04:12.683Z,8.52
2022-10-08T03:06:43.438Z,8.56
2022-10-08T03:09:14.498Z,8.59
2022-10-08T03:11:44.532Z,8.75
2022-10-08T03:14:15.630Z,8.73
2022-10-08T03:16:45.994Z,8.74
2022-10-08T03:19:17.024Z,8.75
2022-10-08T03:21:46.983Z,8.77
2022-10-08T03:24:15.454Z,8.77
2022-10-08T03:26:43.213Z,8.72
2022-10-08T03:29:11.190Z,8.79
2022-10-08T03:31:38.836Z,8.64
2022-10-08T03:34:12.144Z,8.75
2022-10-08T03:36:39.287Z,8.77
2022-10-08T03:39:11.751Z,8.74
2022-10-08T03:41:41.282Z,8.78
2022-10-08T03:44:09.699Z,8.89
2022-10-08T03:46:36.996Z,8.58
2022-10-08T03:49:04.362Z,8.35
2022-10-08T03:51:31.493Z,8.47
2022-10-08T03:53:58.815Z,8.43
2022-10-08T03:56:26.519Z,8.68
2022-10-08T03:58:59.660Z,8.74
2022-10-08T04:01:29.086Z,8.88
2022-10-08T04:04:01.335Z,8.96
2022-10-08T04:06:28.684Z,8.86
2022-10-08T04:09:01.245Z,8.92
2022-10-08T04:11:29.300Z,9.01
2022-10-08T04:13:56.734Z,8.98
2022-10-08T04:16:26.320Z,8.95
2022-10-08T04:18:56.485Z,8.86
2022-10-08T04:21:23.644Z,8.93
2022-10-08T04:23:50.964Z,8.98
2022-10-08T04:26:18.453Z,9.01
2022-10-08T04:28:46.334Z,9.13
2022-10-08T04:31:21.887Z,9.15
2022-10-08T04:33:51.686Z,8.99
2022-10-08T04:36:22.928Z,9.08
2022-10-08T04:38:50.745Z,9.08
2022-10-08T04:41:22.577Z,9.09
2022-10-08T04:43:50.644Z,9.17
2022-10-08T04:46:23.840Z,9.27
2022-10-08T04:48:54.673Z,9.34
2022-10-08T04:51:24.980Z,9.30
2022-10-08T04:53:53.930Z,9.33
2022-10-08T04:56:31.182Z,9.34
2022-10-08T04:58:59.855Z,9.05
2022-10-08T05:01:30.772Z,9.32
2022-10-08T05:03:59.648Z,9.34
2022-10-08T05:06:30.406Z,9.38
2022-10-08T05:09:03.101Z,9.40
2022-10-08T05:11:31.950Z,9.32
2022-10-08T05:13:59.914Z,9.44
2022-10-08T05:16:27.784Z,9.47
2022-10-08T05:18:56.346Z,9.52
2022-10-08T05:21:27.775Z,9.56
2022-10-08T05:24:05.322Z,9.58
2022-10-08T05:29:28.548Z,9.33
2022-10-08T05:31:58.871Z,9.66
2022-10-08T05:34:26.338Z,9.59
2022-10-08T05:36:53.624Z,9.80
2022-10-08T05:39:25.606Z,10.02
2022-10-08T05:41:54.182Z,10.02
2022-10-08T05:44:21.637Z,10.24
2022-10-08T05:46:48.806Z,10.32
2022-10-08T05:49:22.522Z,10.33
2022-10-08T05:51:53.516Z,10.21
2022-10-08T05:54:23.541Z,10.70
2022-10-08T05:56:50.757Z,10.72
2022-10-08T05:59:23.699Z,10.78
2022-10-08T06:01:51.998Z,11.01
2022-10-08T06:04:19.699Z,11.14
2022-10-08T06:06:47.173Z,11.89
2022-10-08T06:09:25.494Z,12.54
2022-10-08T06:11:52.781Z,11.82
2022-10-08T06:14:25.903Z,11.36
2022-10-08T06:16:57.916Z,12.13
2022-10-08T06:19:25.121Z,12.04
2022-10-08T06:21:52.419Z,12.35
2022-10-08T06:24:21.032Z,12.60
2022-10-08T06:26:48.263Z,12.21
2022-10-08T06:29:19.275Z,12.66
2022-10-08T06:31:47.107Z,13.00
2022-10-08T06:34:19.796Z,13.41
2022-10-08T06:36:46.958Z,13.77
2022-10-08T06:39:17.792Z,14.58
2022-10-08T06:41:47.876Z,15.43
2022-10-08T06:44:15.768Z,15.19
2022-10-08T06:46:43.242Z,15.04
2022-10-08T06:49:13.400Z,14.96
2022-10-08T06:51:40.818Z,14.66
2022-10-08T06:54:08.736Z,15.21
2022-10-08T06:56:38.733Z,15.25
2022-10-08T06:59:06.934Z,15.57
2022-10-08T07:01:35.534Z,15.53
2022-10-08T07:04:04.231Z,15.68
2022-10-08T07:06:31.633Z,15.85
2022-10-08T07:09:01.403Z,15.73
2022-10-08T07:11:33.670Z,15.15
2022-10-08T07:14:03.521Z,15.60
2022-10-08T07:16:30.734Z,15.57
2022-10-08T07:19:01.513Z,15.74
2022-10-08T07:21:30.255Z,15.77
2022-10-08T07:24:02.091Z,15.76
2022-10-08T07:26:34.952Z,16.12
2022-10-08T07:29:24.629Z,15.82
2022-10-08T07:31:51.969Z,16.44
2022-10-08T07:34:22.109Z,16.66
2022-10-08T07:36:49.245Z,16.98
2022-10-08T07:39:24.049Z,17.45
2022-10-08T07:41:51.729Z,17.30
2022-10-08T07:44:19.118Z,17.55
2022-10-08T07:46:50.609Z,16.96
2022-10-08T07:49:19.420Z,17.67
2022-10-08T07:51:48.188Z,18.36
2022-10-08T07:54:21.456Z,18.66
2022-10-08T07:56:48.809Z,18.86
2022-10-08T07:59:16.247Z,18.76
2022-10-08T08:01:43.861Z,18.57
2022-10-08T08:04:12.267Z,18.35
2022-10-08T08:06:47.791Z,17.77
2022-10-08T08:09:18.402Z,17.05
2022-10-08T08:11:46.532Z,16.75
2022-10-08T08:14:13.826Z,16.18
2022-10-08T08:16:40.989Z,17.01
2022-10-08T08:19:08.478Z,16.74
2022-10-08T08:21:39.637Z,16.95
2022-10-08T08:24:11.485Z,16.68
2022-10-08T08:26:41.539Z,17.08
2022-10-08T08:29:13.623Z,17.83
2022-10-08T08:31:46.569Z,18.17
2022-10-08T08:34:18.985Z,18.00
2022-10-08T08:36:49.379Z,18.63
2022-10-08T08:39:24.379Z,18.80
2022-10-08T08:42:25.456Z,19.43
2022-10-08T08:45:02.091Z,20.13
2022-10-08T08:48:06.790Z,20.95
2022-10-08T08:50:38.292Z,20.50
2022-10-08T08:53:08.868Z,19.61
2022-10-08T08:55:47.353Z,20.52
2022-10-08T08:59:05.549Z,20.82
2022-10-08T09:01:45.338Z,20.89
2022-10-08T09:04:45.111Z,20.55
2022-10-08T09:07:18.969Z,20.46
2022-10-08T09:09:53.486Z,21.05
2022-10-08T09:12:31.249Z,20.01
2022-10-08T09:15:01.668Z,21.72
2022-10-08T09:17:36.480Z,22.17
2022-10-08T09:20:04.355Z,21.75
2022-10-08T09:22:41.858Z,22.68
2022-10-08T09:25:31.497Z,23.39
2022-10-08T09:28:04.885Z,23.23
2022-10-08T09:30:45.003Z,23.25
2022-10-08T09:33:18.690Z,23.46
2022-10-08T09:35:55.115Z,22.67
2022-10-08T09:38:28.166Z,22.54
2022-10-08T09:41:19.384Z,21.90
2022-10-08T09:44:25.578Z,22.23
2022-10-08T09:47:06.443Z,21.40
2022-10-08T09:49:37.908Z,20.97
2022-10-08T09:52:19.642Z,20.54
2022-10-08T09:54:52.485Z,20.07
2022-10-08T09:57:23.481Z,19.97
2022-10-08T09:59:59.239Z,19.78
2022-10-08T10:02:38.746Z,19.51
2022-10-08T10:05:24.824Z,19.69
2022-10-08T10:07:53.004Z,19.54
2022-10-08T10:10:41.070Z,19.27
2022-10-08T10:13:34.965Z,19.28
2022-10-08T10:16:33.207Z,19.35
2022-10-08T10:19:17.068Z,19.51
2022-10-08T10:22:00.181Z,19.80
2022-10-08T10:24:46.438Z,19.90
2022-10-08T10:27:30.711Z,19.55
2022-10-08T10:30:14.949Z,19.77
2022-10-08T10:33:19.564Z,19.99
2022-10-08T10:35:54.589Z,20.02
2022-10-08T10:38:27.990Z,20.14
2022-10-08T10:41:09.866Z,20.11
2022-10-08T10:43:50.872Z,20.51
2022-10-08T10:46:41.936Z,20.26
2022-10-08T10:49:15.256Z,19.68
2022-10-08T10:52:19.986Z,19.93
2022-10-08T10:55:14.809Z,20.34
2022-10-08T10:58:20.564Z,19.30
2022-10-08T11:01:15.930Z,19.26
2022-10-08T11:04:13.307Z,19.32
2022-10-08T11:06:55.260Z,19.59
2022-10-08T11:09:42.754Z,19.63
2022-10-08T11:12:38.713Z,19.82
2022-10-08T11:16:10.047Z,19.87
2022-10-08T11:18:59.431Z,20.21
2022-10-08T11:21:50.128Z,20.14
2022-10-08T11:24:23.997Z,20.06
2022-10-08T11:26:57.900Z,19.91
2022-10-08T11:30:00.532Z,19.88
2022-10-08T11:32:29.944Z,19.91
2022-10-08T11:35:12.276Z,20.15
2022-10-08T11:38:00.001Z,20.05
2022-10-08T11:40:53.947Z,20.44
2022-10-08T11:44:01.729Z,20.91
2022-10-08T11:46:36.810Z,20.57
2022-10-08T11:49:15.577Z,20.62
2022-10-08T11:51:50.574Z,20.38
2022-10-08T11:54:26.523Z,20.85
2022-10-08T11:57:25.725Z,20.52
2022-10-08T11:59:59.792Z,19.93
2022-10-08T12:02:35.929Z,20.05
2022-10-08T12:05:47.881Z,20.33
2022-10-08T12:08:59.385Z,20.42
2022-10-08T12:11:32.357Z,19.93
2022-10-08T12:14:17.381Z,19.64
2022-10-08T12:16:57.058Z,19.88
2022-10-08T12:19:33.739Z,19.58
2022-10-08T12:22:10.372Z,19.89
2022-10-08T12:24:40.423Z,20.11
2022-10-08T12:27:46.797Z,19.86
2022-10-08T12:30:17.681Z,19.75
2022-10-08T12:32:45.102Z,19.69
2022-10-08T12:35:34.161Z,19.58
2022-10-08T12:38:29.355Z,19.75
2022-10-08T12:41:41.781Z,19.57
2022-10-08T12:44:45.748Z,19.37
2022-10-08T12:47:37.193Z,19.17
2022-10-08T12:51:05.451Z,19.29
2022-10-08T12:53:33.615Z,19.29
2022-10-08T12:56:01.149Z,19.29
2022-10-08T12:58:35.891Z,19.37
2022-10-08T13:01:05.894Z,19.39
2022-10-08T13:03:33.322Z,19.31
2022-10-08T13:06:31.776Z,19.46
2022-10-08T13:09:03.326Z,19.48
2022-10-08T13:11:30.564Z,19.56
2022-10-08T13:13:57.877Z,19.66
2022-10-08T13:16:26.985Z,19.32
2022-10-08T13:19:02.575Z,19.54
2022-10-08T13:21:36.176Z,19.77
2022-10-08T13:24:25.381Z,19.43
2022-10-08T13:26:55.986Z,19.19
2022-10-08T13:29:23.186Z,19.08
2022-10-08T13:32:14.523Z,18.94
2022-10-08T13:34:43.695Z,19.21
2022-10-08T13:37:22.951Z,19.44
2022-10-08T13:40:00.902Z,19.21
2022-10-08T13:42:39.950Z,19.22
2022-10-08T13:45:17.210Z,19.37
2022-10-08T13:47:45.088Z,19.07
2022-10-08T13:50:16.780Z,19.42
2022-10-08T13:52:53.979Z,19.41
2022-10-08T13:55:21.163Z,19.37
2022-10-08T13:57:48.590Z,19.61
2022-10-08T14:00:16.830Z,19.62
2022-10-08T14:02:46.727Z,19.63
2022-10-08T14:05:14.008Z,19.61
2022-10-08T14:07:46.297Z,19.88
2022-10-08T14:10:14.529Z,19.49
2022-10-08T14:12:41.759Z,19.82
2022-10-08T14:15:13.660Z,19.93
2022-10-08T14:17:40.943Z,19.84
2022-10-08T14:20:09.642Z,20.20
2022-10-08T14:22:39.829Z,20.18
2022-10-08T14:25:16.866Z,19.73
2022-10-08T14:27:45.585Z,19.87
2022-10-08T14:30:14.690Z,20.04
2022-10-08T14:32:42.413Z,20.05
2022-10-08T14:35:11.333Z,20.15
2022-10-08T14:37:38.916Z,20.46
2022-10-08T14:40:11.321Z,20.32
2022-10-08T14:42:38.437Z,20.01
2022-10-08T14:45:06.209Z,20.32
2022-10-08T14:47:33.325Z,19.83
2022-10-08T14:50:00.716Z,19.93
2022-10-08T14:52:27.915Z,20.16
2022-10-08T14:54:55.318Z,19.60
2022-10-08T14:57:23.170Z,19.08
2022-10-08T14:59:50.296Z,18.97
2022-10-08T15:02:17.456Z,18.50
2022-10-08T15:04:44.593Z,18.97
2022-10-08T15:07:11.795Z,18.74
2022-10-08T15:09:41.402Z,18.95
2022-10-08T15:12:08.812Z,19.09
2022-10-08T15:14:38.661Z,19.01
2022-10-08T15:17:05.968Z,19.34
2022-10-08T15:19:33.282Z,18.92
2022-10-08T15:22:00.676Z,18.70
2022-10-08T15:24:27.883Z,18.85
2022-10-08T15:26:57.285Z,18.59
2022-10-08T15:29:24.381Z,18.51
2022-10-08T15:31:54.033Z,18.33
2022-10-08T15:34:22.583Z,17.94
2022-10-08T15:36:49.856Z,18.02
2022-10-08T15:39:21.247Z,17.86
2022-10-08T15:41:54.491Z,17.86
2022-10-08T15:44:26.072Z,17.84
2022-10-08T15:47:04.608Z,17.66
2022-10-08T15:49:37.269Z,17.90
2022-10-08T15:52:07.643Z,17.78
2022-10-08T15:54:42.156Z,17.75
2022-10-08T15:57:13.669Z,17.73
2022-10-08T15:59:43.507Z,17.48
2022-10-08T16:02:17.624Z,17.49
2022-10-08T16:04:48.744Z,17.14
2022-10-08T16:07:17.399Z,17.02
2022-10-08T16:09:44.584Z,16.99
2022-10-08T16:12:14.296Z,16.98
2022-10-08T16:14:41.462Z,16.83
2022-10-08T16:17:09.056Z,17.06
2022-10-08T16:19:38.618Z,16.72
2022-10-08T16:22:06.664Z,16.91
2022-10-08T16:24:33.983Z,16.83
2022-10-08T16:27:01.134Z,16.70
2022-10-08T16:29:30.694Z,16.69
2022-10-08T16:31:58.771Z,16.68
2022-10-08T16:34:28.595Z,16.47
2022-10-08T16:36:56.166Z,16.59
2022-10-08T16:39:25.839Z,16.41
2022-10-08T16:41:52.970Z,16.52
2022-10-08T16:44:21.429Z,16.52
2022-10-08T16:46:52.888Z,16.44
2022-10-08T16:49:26.901Z,16.38
2022-10-08T16:52:00.802Z,16.61
2022-10-08T16:54:28.812Z,16.41
2022-10-08T16:56:56.811Z,16.47
2022-10-08T16:59:29.070Z,16.29
2022-10-08T17:01:57.909Z,16.05
2022-10-08T17:04:28.451Z,16.00
2022-10-08T17:06:56.092Z,16.22
2022-10-08T17:09:23.595Z,16.27
2022-10-08T17:11:50.839Z,16.12
2022-10-08T17:14:20.952Z,16.10
2022-10-08T17:16:50.581Z,15.93
2022-10-08T17:19:18.618Z,16.00
2022-10-08T17:21:48.440Z,15.93
2022-10-08T17:24:15.612Z,15.99
2022-10-08T17:26:42.815Z,15.87
2022-10-08T17:29:12.849Z,15.77
2022-10-08T17:31:40.805Z,15.93
2022-10-08T17:34:13.513Z,15.71
2022-10-08T17:36:43.995Z,15.79
2022-10-08T17:39:15.784Z,15.75
2022-10-08T17:41:43.673Z,15.77
2022-10-08T17:44:12.146Z,15.67
2022-10-08T17:46:50.175Z,15.51
2022-10-08T17:49:20.661Z,15.47
2022-10-08T17:51:48.567Z,15.45
2022-10-08T17:54:19.774Z,15.14
2022-10-08T17:56:48.196Z,15.28
2022-10-08T17:59:17.749Z,15.27
2022-10-08T18:01:46.175Z,15.20
2022-10-08T18:04:16.451Z,15.27
2022-10-08T18:06:46.474Z,15.27
2022-10-08T18:09:20.820Z,15.12
2022-10-08T18:11:53.423Z,14.96
2022-10-08T18:14:22.282Z,15.02
2022-10-08T18:16:49.906Z,14.89
2022-10-08T18:19:18.421Z,14.86
2022-10-08T18:21:46.420Z,15.10
2022-10-08T18:24:13.928Z,15.03
2022-10-08T18:26:41.166Z,15.03
2022-10-08T18:29:11.976Z,15.04
2022-10-08T18:31:42.261Z,14.89
2022-10-08T18:34:15.783Z,14.76
2022-10-08T18:36:45.347Z,14.56
2022-10-08T18:39:19.075Z,14.70
2022-10-08T18:41:49.467Z,14.71
2022-10-08T18:44:22.066Z,14.43
2022-10-08T18:46:50.180Z,14.42
2022-10-08T18:49:20.698Z,14.47
2022-10-08T18:51:50.119Z,14.22
2022-10-08T18:54:17.478Z,14.34
2022-10-08T18:56:44.522Z,14.46
2022-10-08T18:59:15.006Z,14.42
2022-10-08T19:01:47.604Z,14.25
2022-10-08T19:04:21.043Z,13.99
2022-10-08T19:06:51.171Z,14.01
2022-10-08T19:09:19.004Z,13.85
2022-10-08T19:11:49.819Z,13.85
2022-10-08T19:14:21.868Z,13.60
2022-10-08T19:16:51.897Z,13.83
2022-10-08T19:19:27.409Z,13.76
2022-10-08T19:21:55.767Z,13.59
2022-10-08T19:24:27.559Z,13.77
2022-10-08T19:26:56.329Z,13.54
2022-10-08T19:29:29.555Z,13.46
2022-10-08T19:31:58.016Z,13.43
2022-10-08T19:34:29.331Z,13.42
2022-10-08T19:36:56.624Z,13.46
2022-10-08T19:39:31.027Z,13.31
2022-10-08T19:42:00.666Z,13.03
2022-10-08T19:44:27.838Z,13.04
2022-10-08T19:46:55.148Z,12.88
2022-10-08T19:49:22.500Z,13.00
2022-10-08T19:51:49.732Z,13.13
2022-10-08T19:54:18.304Z,13.03
2022-10-08T19:56:45.855Z,12.92
2022-10-08T19:59:13.805Z,12.91
2022-10-08T20:01:42.834Z,12.70
2022-10-08T20:04:11.896Z,12.82
2022-10-08T20:06:43.262Z,12.81
2022-10-08T20:09:14.210Z,12.73
2022-10-08T20:11:46.334Z,12.90
2022-10-08T20:14:14.908Z,12.93
2022-10-08T20:16:45.944Z,12.70
2022-10-08T20:19:21.065Z,12.65
2022-10-08T20:21:49.861Z,12.74
2022-10-08T20:24:19.004Z,12.72
2022-10-08T20:26:46.628Z,12.64
2022-10-08T20:29:20.842Z,12.65
2022-10-08T20:31:54.302Z,12.62
2022-10-08T20:34:28.829Z,12.54
2022-10-08T20:36:58.067Z,12.45
2022-10-08T20:39:25.316Z,12.49
2022-10-08T20:41:52.517Z,12.60
2022-10-08T20:44:20.282Z,12.67
2022-10-08T20:46:50.611Z,12.57
2022-10-08T20:49:18.348Z,12.75
2022-10-08T20:51:45.505Z,12.75
2022-10-08T20:54:17.261Z,12.56
2022-10-08T20:56:47.128Z,12.62
2022-10-08T20:59:19.008Z,12.63
2022-10-08T21:01:55.743Z,12.41
2022-10-08T21:04:24.097Z,12.42
2022-10-08T21:06:52.009Z,12.27
2022-10-08T21:09:24.013Z,12.39
2022-10-08T21:11:52.469Z,12.40
2022-10-08T21:14:22.759Z,12.46
2022-10-08T21:16:50.136Z,12.25
2022-10-08T21:19:22.309Z,12.20
2022-10-08T21:21:49.362Z,12.07
2022-10-08T21:24:16.984Z,12.15
2022-10-08T21:26:44.430Z,12.27
2022-10-08T21:29:14.293Z,12.32
2022-10-08T21:31:42.339Z,12.24
2022-10-08T21:34:12.446Z,12.21
2022-10-08T21:36:41.476Z,12.14
2022-10-08T21:39:15.262Z,12.03
2022-10-08T21:41:42.353Z,11.95
2022-10-08T21:44:09.775Z,12.11
2022-10-08T21:46:40.905Z,12.03
2022-10-08T21:49:15.120Z,12.04
2022-10-08T21:51:45.359Z,11.81
2022-10-08T21:54:13.652Z,11.89
2022-10-08T21:56:42.383Z,11.85
2022-10-08T21:59:14.151Z,11.78
2022-10-08T22:01:48.159Z,11.79
2022-10-08T22:04:16.875Z,11.71
2022-10-08T22:06:50.979Z,11.59
2022-10-08T22:09:26.284Z,11.59
2022-10-08T22:11:55.504Z,11.58
2022-10-08T22:14:24.023Z,11.67
2022-10-08T22:16:56.316Z,11.59
2022-10-08T22:19:23.823Z,11.48
2022-10-08T22:21:51.126Z,11.37
2022-10-08T22:24:18.636Z,11.24
2022-10-08T22:26:47.755Z,11.20
2022-10-08T22:29:15.308Z,11.09
2022-10-08T22:31:42.638Z,11.07
2022-10-08T22:34:10.145Z,11.18
2022-10-08T22:36:44.030Z,11.06
2022-10-08T22:39:11.932Z,11.15
2022-10-08T22:41:41.892Z,11.08
2022-10-08T22:44:09.235Z,11.00
2022-10-08T22:46:39.533Z,10.90
2022-10-08T22:49:12.291Z,10.77
2022-10-08T22:51:43.937Z,10.87
2022-10-08T22:54:11.168Z,10.84
2022-10-08T22:56:38.425Z,10.78
2022-10-08T22:59:05.530Z,10.65
2022-10-08T23:01:32.724Z,10.49
2022-10-08T23:03:59.987Z,10.60
2022-10-08T23:06:31.232Z,10.47
2022-10-08T23:09:02.277Z,10.48
2022-10-08T23:11:31.858Z,10.56
2022-10-08T23:14:00.814Z,10.38
2022-10-08T23:16:31.380Z,10.47
2022-10-08T23:19:05.861Z,10.36
2022-10-08T23:21:34.079Z,10.46
2022-10-08T23:24:01.454Z,10.47
2022-10-08T23:26:29.413Z,10.33
2022-10-08T23:29:00.450Z,10.41
2022-10-08T23:31:31.596Z,10.52
2022-10-08T23:33:59.930Z,10.47
2022-10-08T23:36:33.280Z,10.41
2022-10-08T23:39:00.614Z,10.28
2022-10-08T23:41:28.390Z,10.19
2022-10-08T23:43:57.447Z,10.23
2022-10-08T23:46:29.647Z,10.28
2022-10-08T23:48:57.842Z,10.14
2022-10-08T23:51:31.683Z,10.22
2022-10-08T23:53:59.291Z,10.22
2022-10-08T23:56:26.844Z,10.12
2022-10-08T23:58:54.165Z,9.94
